createdAt,value
2023-01-10T00:01:39.269Z,-28.4
2023-01-10T00:03:40.560Z,-28.3
2023-01-10T00:05:41.913Z,-28.3
2023-01-10T00:07:43.666Z,-28.4
2023-01-10T00:09:45.066Z,-28.6
2023-01-10T00:11:46.445Z,-28.2
2023-01-10T00:13:47.468Z,-28.4
2023-01-10T00:15:48.932Z,-28.2
2023-01-10T00:17:50.228Z,-28.5
2023-01-10T00:19:51.944Z,-28.5
2023-01-10T00:21:53.139Z,-28.7
2023-01-10T00:23:54.693Z,-28.2
2023-01-10T00:25:56.349Z,-28.4
2023-01-10T00:27:57.542Z,-28.5
2023-01-10T00:29:59.092Z,-28.3
2023-01-10T00:32:00.173Z,-28.3
2023-01-10T00:34:01.779Z,-28.2
2023-01-10T00:36:03.084Z,-28.4
2023-01-10T00:38:04.140Z,-28
2023-01-10T00:40:05.215Z,-28.2
2023-01-10T00:42:06.220Z,-28.2
2023-01-10T00:44:07.333Z,-28.4
2023-01-10T00:46:09.076Z,-28.3
2023-01-10T00:48:10.019Z,-28.3
2023-01-10T00:50:11.293Z,-28.4
2023-01-10T00:52:13.077Z,-28.5
2023-01-10T00:54:14.749Z,-28.3
2023-01-10T00:56:15.912Z,-28.3
2023-01-10T01:02:20.353Z,-28.2
2023-01-10T01:04:21.915Z,-28.4
2023-01-10T01:06:23.203Z,-28.3
2023-01-10T01:08:24.564Z,-28.5
2023-01-10T01:10:26.163Z,-28.4
2023-01-10T01:12:27.380Z,-28.5
2023-01-10T01:16:30.212Z,-28.5
2023-01-10T01:18:31.821Z,-28.3
2023-01-10T01:20:33.291Z,-28.4
2023-01-10T01:22:34.825Z,-28.3
2023-01-10T01:26:37.657Z,-28.3
2023-01-10T01:28:38.950Z,-28.4
2023-01-10T01:32:42.358Z,-28.3
2023-01-10T01:34:43.495Z,-28.2
2023-01-10T01:36:44.716Z,-28.4
2023-01-10T01:38:46.102Z,-28
2023-01-10T01:43:33.335Z,-28.5
2023-01-10T01:45:34.446Z,-28
2023-01-10T01:47:35.465Z,-28.4
2023-01-10T01:49:37.010Z,-28.1
2023-01-10T01:51:38.640Z,-28.4
2023-01-10T01:53:39.870Z,-28.3
2023-01-10T01:55:41.429Z,-28.4
2023-01-10T01:57:42.963Z,-28.5
2023-01-10T01:59:44.042Z,-28.3
2023-01-10T02:01:45.067Z,-27.9
2023-01-10T02:03:46.714Z,-28.3
2023-01-10T02:05:48.474Z,-28
2023-01-10T02:09:51.146Z,-28.5
2023-01-10T02:11:52.477Z,-28.3
2023-01-10T02:13:54.321Z,-28.2
2023-01-10T02:15:55.840Z,-28.3
2023-01-10T02:21:59.913Z,-28.4
2023-01-10T02:24:01.006Z,-28.4
2023-01-10T02:26:02.489Z,-28.2
2023-01-10T02:28:04.326Z,-28.4
2023-01-10T02:30:05.581Z,-28.2
2023-01-10T02:32:06.796Z,-28.3
2023-01-10T02:34:08.715Z,-28.4
2023-01-10T02:36:10.121Z,-28.3
2023-01-10T02:38:11.103Z,-28.4
2023-01-10T02:40:12.946Z,-28.1
2023-01-10T02:42:14.452Z,-28.3
2023-01-10T02:44:18.101Z,-28.4
2023-01-10T02:46:17.638Z,-28.4
2023-01-10T02:48:19.191Z,-28.1
2023-01-10T02:50:21.013Z,-28.1
2023-01-10T02:52:22.436Z,-28.5
2023-01-10T02:54:23.951Z,-28.1
2023-01-10T02:58:26.392Z,-28.4
2023-01-10T03:00:27.946Z,-28.3
2023-01-10T03:02:29.784Z,-28.4
2023-01-10T03:04:31.265Z,-28.3
2023-01-10T03:06:32.627Z,-28.5
2023-01-10T03:08:34.529Z,-28.5
2023-01-10T03:10:35.540Z,-28.5
2023-01-10T03:12:36.525Z,-28.3
2023-01-10T03:14:38.401Z,-28.5
2023-01-10T03:20:43.686Z,-28.3
2023-01-10T03:22:44.829Z,-28.3
2023-01-10T03:24:46.268Z,-28.2
2023-01-10T03:26:48.220Z,-28.4
2023-01-10T03:28:49.322Z,-28.5
2023-01-10T03:30:51.248Z,-28.3
2023-01-10T03:34:53.748Z,-28.2
2023-01-10T03:36:55.147Z,-28.3
2023-01-10T03:38:56.567Z,-28.5
2023-01-10T03:40:58.349Z,-28.4
2023-01-10T03:47:02.137Z,-28.4
2023-01-10T03:49:03.573Z,-28.1
2023-01-10T03:51:05.050Z,-28.3
2023-01-10T03:53:06.292Z,-28.5
2023-01-10T03:55:08.191Z,-28.2
2023-01-10T03:57:09.421Z,-28.3
2023-01-10T03:59:11.397Z,-28.5
2023-01-10T04:01:12.770Z,-28.4
2023-01-10T04:03:13.650Z,-28.3
2023-01-10T04:05:15.003Z,-28.4
2023-01-10T04:07:16.851Z,-28.3
2023-01-10T04:09:18.291Z,-28.4
2023-01-10T04:11:19.901Z,-28.2
2023-01-10T04:13:21.196Z,-28.3
2023-01-10T04:15:22.278Z,-28.4
2023-01-10T04:17:24.202Z,-28.1
2023-01-10T04:19:25.310Z,-28.2
2023-01-10T04:23:28.383Z,-28.4
2023-01-10T04:25:29.386Z,-28.4
2023-01-10T04:27:30.449Z,-28.2
2023-01-10T04:29:31.594Z,-28.3
2023-01-10T04:33:34.868Z,-28.5
2023-01-10T04:35:35.926Z,-28.2
2023-01-10T04:37:37.335Z,-28.6
2023-01-10T04:39:38.478Z,-28.3
2023-01-10T04:43:41.201Z,-28.3
2023-01-10T04:45:42.700Z,-28.4
2023-01-10T04:47:44.095Z,-28.3
2023-01-10T04:49:45.136Z,-28.3
2023-01-10T04:51:46.720Z,-28.2
2023-01-10T04:53:48.707Z,-28.2
2023-01-10T04:55:50.488Z,-28.4
2023-01-10T04:57:51.682Z,-28.1
2023-01-10T05:01:54.353Z,-28.6
2023-01-10T05:03:56.289Z,-28.2
2023-01-10T05:05:57.525Z,-28.5
2023-01-10T05:07:58.935Z,-28.1
2023-01-10T05:10:00.540Z,-28.3
2023-01-10T05:12:02.192Z,-28.5
2023-01-10T05:14:04.122Z,-28.2
2023-01-10T05:16:05.684Z,-28.2
2023-01-10T05:18:06.714Z,-28.2
2023-01-10T05:20:08.031Z,-28.3
2023-01-10T05:22:09.651Z,-28.3
2023-01-10T05:24:11.215Z,-28.3
2023-01-10T05:26:12.684Z,-28.3
2023-01-10T05:28:14.055Z,-28.4
2023-01-10T05:30:15.396Z,-28.1
2023-01-10T05:32:17.097Z,-28.5
2023-01-10T05:34:18.396Z,-28.4
2023-01-10T05:36:19.656Z,-28.1
2023-01-10T05:38:20.955Z,-28.5
2023-01-10T05:40:22.660Z,-28.3
2023-01-10T05:42:23.749Z,-28.4
2023-01-10T05:44:25.365Z,-28.4
2023-01-10T05:46:27.136Z,-28.2
2023-01-10T05:48:28.817Z,-28.6
2023-01-10T05:50:30.113Z,-28.3
2023-01-10T05:52:31.709Z,-28.2
2023-01-10T05:54:33.391Z,-28
2023-01-10T05:56:34.559Z,-28.2
2023-01-10T06:00:37.650Z,-28.3
2023-01-10T06:02:39.471Z,-28.4
2023-01-10T06:04:40.607Z,-28.5
2023-01-10T06:06:42.564Z,-28.3
2023-01-10T06:08:43.688Z,-28.3
2023-01-10T06:10:45.207Z,-28.2
2023-01-10T06:14:48.599Z,-28.2
2023-01-10T06:16:49.954Z,-28.5
2023-01-10T06:18:51.901Z,-28.4
2023-01-10T06:20:53.217Z,-28.4
2023-01-10T06:22:54.284Z,-28.5
2023-01-10T06:24:55.890Z,-28.4
2023-01-10T06:26:57.194Z,-28.4
2023-01-10T06:28:58.593Z,-28.3
2023-01-10T06:31:00.601Z,-28.6
2023-01-10T06:33:02.069Z,-28.4
2023-01-10T06:37:05.020Z,-28.4
2023-01-10T06:39:06.818Z,-28.3
2023-01-10T06:41:08.081Z,-28.2
2023-01-10T06:43:09.426Z,-28.3
2023-01-10T06:45:10.458Z,-28.5
2023-01-10T06:47:12.435Z,-28
2023-01-10T06:49:14.033Z,-28.3
2023-01-10T06:51:15.768Z,-28.2
2023-01-10T06:53:17.154Z,-28.3
2023-01-10T06:59:21.414Z,-28.4
2023-01-10T07:01:22.539Z,-28.7
2023-01-10T07:03:23.934Z,-28.4
2023-01-10T07:05:25.303Z,-28.4
2023-01-10T07:07:26.612Z,-28.2
2023-01-10T07:09:28.269Z,-28.2
2023-01-10T07:13:31.236Z,-28.2
2023-01-10T07:15:32.468Z,-28
2023-01-10T07:17:34.477Z,-28.4
2023-01-10T07:19:36.407Z,-28.3
2023-01-10T07:25:40.375Z,-28.3
2023-01-10T07:27:42.298Z,-28.2
2023-01-10T07:29:43.909Z,-28.3
2023-01-10T07:31:44.951Z,-28.3
2023-01-10T07:33:46.715Z,-28.4
2023-01-10T07:35:48.377Z,-28
2023-01-10T07:39:51.053Z,-27.8
2023-01-10T07:41:52.232Z,-28.4
2023-01-10T07:43:53.668Z,-28.4
2023-01-10T07:45:55.312Z,-28.4
2023-01-10T07:49:58.285Z,-28.6
2023-01-10T07:51:59.792Z,-28.3
2023-01-10T07:56:03.096Z,-28.4
2023-01-10T07:58:04.652Z,-28.3
2023-01-10T08:00:05.859Z,-28.3
2023-01-10T08:02:07.855Z,-28.1
2023-01-10T08:08:12.181Z,-28.2
2023-01-10T08:10:13.891Z,-28.3
2023-01-10T08:12:15.436Z,-28.4
2023-01-10T08:14:17.234Z,-28.5
2023-01-10T08:16:19.114Z,-28.4
2023-01-10T08:18:20.308Z,-28.3
2023-01-10T08:20:21.516Z,-28.4
2023-01-10T08:22:22.844Z,-28.3
2023-01-10T08:24:23.931Z,-28.2
2023-01-10T08:26:24.947Z,-28
2023-01-10T08:29:10.564Z,-28.3
2023-01-10T08:31:11.949Z,-28.3
2023-01-10T08:33:13.111Z,-28
2023-01-10T08:35:14.858Z,-28.4
2023-01-10T08:37:16.790Z,-24.3
2023-01-10T08:39:17.915Z,-16.6
2023-01-10T08:41:19.623Z,9
2023-01-10T08:43:21.447Z,1.5
2023-01-10T08:45:22.547Z,-27.3
2023-01-10T08:47:23.994Z,-27.9
2023-01-10T08:49:25.179Z,-27.5
2023-01-10T08:51:26.248Z,-22.5
2023-01-10T08:53:27.484Z,-13
2023-01-10T08:55:28.687Z,-1.5
2023-01-10T08:57:30.367Z,-0.8
2023-01-10T09:01:33.729Z,-14.1
2023-01-10T09:03:35.321Z,-3.8
2023-01-10T09:05:37.220Z,-14.1
2023-01-10T09:07:38.265Z,-23.6
2023-01-10T09:09:39.767Z,-23.2
2023-01-10T09:11:41.911Z,-21.4
2023-01-10T09:17:45.660Z,-5.5
2023-01-10T09:19:47.325Z,-0.8
2023-01-10T09:21:48.610Z,-3.2
2023-01-10T09:23:50.105Z,-9.5
2023-01-10T09:25:51.623Z,-11.1
2023-01-10T09:27:52.627Z,-13.4
2023-01-10T09:29:54.494Z,-19.6
2023-01-10T09:31:56.266Z,-21.5
2023-01-10T09:33:57.261Z,-19.9
2023-01-10T09:38:00.318Z,-26.2
2023-01-10T09:42:03.101Z,-28.1
2023-01-10T09:44:04.881Z,-28.6
2023-01-10T09:48:07.327Z,-27.6
2023-01-10T09:50:09.315Z,-28.4
2023-01-10T09:52:10.460Z,-28.6
2023-01-10T09:54:12.884Z,-27.8
2023-01-10T09:58:15.372Z,-27.8
2023-01-10T10:00:17.206Z,-28.4
2023-01-10T10:02:18.738Z,-28.2
2023-01-10T10:04:19.931Z,-24.5
2023-01-10T10:06:21.112Z,-26.8
2023-01-10T10:08:22.183Z,-25.8
2023-01-10T10:10:24.007Z,-27.4
2023-01-10T10:14:26.507Z,-26.1
2023-01-10T10:16:28.148Z,-22.5
2023-01-10T10:18:29.821Z,-22.3
2023-01-10T10:20:31.240Z,-27.4
2023-01-10T10:26:35.711Z,-28
2023-01-10T10:28:39.177Z,-28.1
2023-01-10T10:30:38.571Z,-28.6
2023-01-10T10:32:40.151Z,-28
2023-01-10T10:34:41.132Z,-28.6
2023-01-10T10:36:42.664Z,-28
2023-01-10T10:38:43.792Z,-28.1
2023-01-10T10:40:44.828Z,-26.4
2023-01-10T10:42:46.662Z,-25.6
2023-01-10T10:44:48.354Z,-21.7
2023-01-10T10:46:49.689Z,-15
2023-01-10T10:48:51.031Z,-17.2
2023-01-10T10:50:52.760Z,-21.6
2023-01-10T10:52:54.157Z,-27.7
2023-01-10T10:54:55.786Z,-27.2
2023-01-10T10:56:56.826Z,-20.1
2023-01-10T10:58:57.995Z,-14
2023-01-10T11:01:00.134Z,-14.9
2023-01-10T11:03:01.882Z,-15.8
2023-01-10T11:05:03.594Z,-14.4
2023-01-10T11:07:04.931Z,-12.9
2023-01-10T11:09:06.534Z,-5.1
2023-01-10T11:13:08.895Z,9
2023-01-10T11:15:10.152Z,12.4
2023-01-10T11:17:11.648Z,20.29
2023-01-10T11:19:13.507Z,32.8
2023-01-10T11:25:18.729Z,14.2
2023-01-10T11:27:20.370Z,5.8
2023-01-10T11:29:21.848Z,7.5
2023-01-10T11:31:23.798Z,0.7
2023-01-10T11:33:25.637Z,-5.8
2023-01-10T11:35:26.628Z,-1.4
2023-01-10T11:37:28.236Z,-0.9
2023-01-10T11:39:29.404Z,4.69
2023-01-10T11:41:30.704Z,13.2
2023-01-10T11:43:32.522Z,12.9
2023-01-10T11:45:33.853Z,12.9
2023-01-10T11:47:37.934Z,20.1
2023-01-10T11:49:36.121Z,20.2
2023-01-10T11:51:37.256Z,14.5
2023-01-10T11:53:38.629Z,18.79
2023-01-10T11:55:40.076Z,17.5
2023-01-10T11:57:41.629Z,17.7
2023-01-10T11:59:42.776Z,-3.1
2023-01-10T12:01:44.527Z,-2.09
2023-01-10T12:03:46.383Z,5.8
2023-01-10T12:07:49.935Z,3.9
2023-01-10T12:09:51.749Z,-11.9
2023-01-10T12:11:53.013Z,-22.7
2023-01-10T12:13:54.059Z,-28.4
2023-01-10T12:15:55.812Z,-28
2023-01-10T12:17:57.543Z,-28.6
2023-01-10T12:22:00.310Z,-28.3
2023-01-10T12:24:01.316Z,-17.7
2023-01-10T12:26:11.273Z,-7.2
2023-01-10T12:28:04.019Z,26.5
2023-01-10T12:30:05.097Z,81.6
2023-01-10T12:32:06.086Z,61
2023-01-10T12:34:07.814Z,49
2023-01-10T12:36:08.967Z,28.4
2023-01-10T12:38:10.692Z,25.9
2023-01-10T12:40:11.732Z,5.7
2023-01-10T12:44:15.353Z,9.1
2023-01-10T12:48:17.678Z,82.1
2023-01-10T12:50:18.985Z,81.6
2023-01-10T12:54:21.206Z,16.79
2023-01-10T12:56:23.543Z,46
2023-01-10T12:58:24.516Z,82.1
2023-01-10T13:00:26.347Z,82
2023-01-10T13:06:30.807Z,31.6
2023-01-10T13:08:32.458Z,17.1
2023-01-10T13:10:34.091Z,8.39
2023-01-10T13:12:35.962Z,17.9
2023-01-10T13:14:37.718Z,2.09
2023-01-10T13:16:38.886Z,4.3
2023-01-10T13:20:41.051Z,5.2
2023-01-10T13:22:42.504Z,5.6
2023-01-10T13:24:44.040Z,9.89
2023-01-10T13:26:45.949Z,29.4
2023-01-10T13:30:49.206Z,81.6
2023-01-10T13:32:50.787Z,81.9
2023-01-10T13:34:52.190Z,81.69
2023-01-10T13:36:55.879Z,82
2023-01-10T13:38:54.949Z,12.7
2023-01-10T13:40:57.513Z,18.29
2023-01-10T13:42:59.158Z,27.1
2023-01-10T13:47:01.966Z,82.1
2023-01-10T13:49:03.181Z,24.8
2023-01-10T13:51:04.157Z,22.8
2023-01-10T13:53:05.113Z,23.7
2023-01-10T13:55:06.182Z,15.8
2023-01-10T13:57:07.878Z,11.9
2023-01-10T13:59:09.581Z,20.1
2023-01-10T14:01:11.029Z,4.3
2023-01-10T14:03:11.931Z,4.5
2023-01-10T14:05:13.472Z,2.9
2023-01-10T14:07:14.726Z,21
2023-01-10T14:09:16.619Z,2.9
2023-01-10T14:11:18.061Z,2.6
2023-01-10T14:15:20.720Z,3.8
2023-01-10T14:17:22.303Z,13
2023-01-10T14:19:23.580Z,11.4
2023-01-10T14:21:25.208Z,12.4
2023-01-10T14:23:26.431Z,6.4
2023-01-10T14:25:27.627Z,6.5
2023-01-10T14:31:31.959Z,-3.1
2023-01-10T14:33:32.979Z,-7.9
2023-01-10T14:35:34.540Z,-12.2
2023-01-10T14:37:35.500Z,-9.7
2023-01-10T14:39:36.653Z,-13.5
2023-01-10T14:41:38.549Z,-17.5
2023-01-10T14:43:40.404Z,-21.5
2023-01-10T14:45:42.030Z,-22
2023-01-10T14:47:43.468Z,-24.5
2023-01-10T14:49:45.316Z,-27.2
2023-01-10T14:51:46.449Z,-28.3
2023-01-10T14:53:48.227Z,-28.4
2023-01-10T14:55:49.485Z,-28.2
2023-01-10T14:57:51.262Z,-28.2
2023-01-10T14:59:52.503Z,-28.5
2023-01-10T15:01:53.688Z,-28.5
2023-01-10T15:03:55.207Z,-28.2
2023-01-10T15:05:57.064Z,-28.5
2023-01-10T15:07:58.748Z,-28.3
2023-01-10T15:10:00.426Z,-28.2
2023-01-10T15:12:01.921Z,-28.4
2023-01-10T15:14:47.525Z,-28.3
2023-01-10T15:16:48.958Z,-28.2
2023-01-10T15:18:49.951Z,-28.4
2023-01-10T15:24:54.412Z,-28.3
2023-01-10T15:26:55.918Z,-28.3
2023-01-10T15:28:57.602Z,-28.4
2023-01-10T15:30:59.605Z,-28.2
2023-01-10T15:33:00.867Z,-28.2
2023-01-10T15:35:02.557Z,-28.3
2023-01-10T15:37:03.534Z,-28.5
2023-01-10T15:39:05.255Z,-28.5
2023-01-10T15:41:07.007Z,-28.4
2023-01-10T15:45:10.071Z,-28.4
2023-01-10T15:47:11.198Z,-28.3
2023-01-10T15:49:14.052Z,-28.4
2023-01-10T15:51:13.513Z,-28.5
2023-01-10T15:55:16.777Z,-28.5
2023-01-10T15:57:18.678Z,-28.4
2023-01-10T15:59:20.436Z,-27.9
2023-01-10T16:01:21.634Z,-28.2
2023-01-10T16:05:23.994Z,-28.3
2023-01-10T16:07:27.625Z,-28.2
2023-01-10T16:09:27.342Z,-28.3
2023-01-10T16:11:28.775Z,-28.4
2023-01-10T16:13:30.431Z,-28.2
2023-01-10T16:15:31.485Z,-28.5
2023-01-10T16:17:32.475Z,-28.4
2023-01-10T16:21:36.208Z,-28.2
2023-01-10T16:23:38.112Z,-28.4
2023-01-10T16:25:39.182Z,-28.3
2023-01-10T16:27:40.780Z,-28.4
2023-01-10T16:33:46.022Z,-28.3
2023-01-10T16:37:50.034Z,-28.2
2023-01-10T16:39:51.342Z,-28.4
2023-01-10T16:41:53.241Z,-28.3
2023-01-10T16:43:54.416Z,-28.3
2023-01-10T16:47:57.215Z,-28.4
2023-01-10T16:49:58.395Z,-28.2
2023-01-10T16:52:00.212Z,-28.3
2023-01-10T16:54:01.598Z,-28.3
2023-01-10T16:58:04.656Z,-28.3
2023-01-10T17:00:05.982Z,-28.4
2023-01-10T17:02:07.267Z,-28.4
2023-01-10T17:04:09.025Z,-28.4
2023-01-10T17:06:10.567Z,-28.3
2023-01-10T17:08:12.173Z,-28.2
2023-01-10T17:10:13.321Z,-28.3
2023-01-10T17:16:19.727Z,-28.3
2023-01-10T17:18:19.470Z,-28.4
2023-01-10T17:20:21.144Z,-28.2
2023-01-10T17:22:22.856Z,-28.3
2023-01-10T17:24:24.399Z,-28.6
2023-01-10T17:26:26.320Z,-28.4
2023-01-10T17:28:27.423Z,-28
2023-01-10T17:30:28.519Z,-28.4
2023-01-10T17:32:29.849Z,-28.3
2023-01-10T17:34:30.915Z,-28.4
2023-01-10T17:36:32.640Z,-28.4
2023-01-10T17:38:34.266Z,-28.3
2023-01-10T17:40:35.751Z,-28.1
2023-01-10T17:42:37.209Z,-28.4
2023-01-10T17:44:38.831Z,-28.3
2023-01-10T17:46:39.860Z,-28.2
2023-01-10T17:48:40.914Z,-28.2
2023-01-10T17:50:42.744Z,-28.4
2023-01-10T17:52:44.559Z,-28
2023-01-10T17:54:45.658Z,-28.5
2023-01-10T17:56:47.452Z,-28.2
2023-01-10T17:58:48.470Z,-28.3
2023-01-10T18:02:50.947Z,-28.3
2023-01-10T18:04:52.693Z,-28.6
2023-01-10T18:06:54.483Z,-28.4
2023-01-10T18:08:55.481Z,-28.6
2023-01-10T18:10:57.352Z,-28.3
2023-01-10T18:14:59.632Z,-28.5
2023-01-10T18:17:01.330Z,-28
2023-01-10T18:19:02.902Z,-28.3
2023-01-10T18:21:04.386Z,-28.1
2023-01-10T18:23:05.945Z,-28.3
2023-01-10T18:25:07.543Z,-28.6
2023-01-10T18:27:08.899Z,-28.3
2023-01-10T18:29:10.872Z,-28.4
2023-01-10T18:31:11.986Z,-28.3
2023-01-10T18:33:13.658Z,-28.5
2023-01-10T18:35:14.981Z,-28.4
2023-01-10T18:37:16.359Z,-28.4
2023-01-10T18:39:17.970Z,-28.2
2023-01-10T18:41:19.632Z,-28.4
2023-01-10T18:43:20.722Z,-28.2
2023-01-10T18:45:22.626Z,-28.4
2023-01-10T18:47:24.357Z,-28
2023-01-10T18:49:26.246Z,-28.4
2023-01-10T18:51:27.303Z,-28.3
2023-01-10T18:53:28.647Z,-28.4
2023-01-10T18:55:29.684Z,-28.1
2023-01-10T18:57:31.455Z,-28.3
2023-01-10T18:59:32.664Z,-28.2
2023-01-10T19:01:34.814Z,-28.4
2023-01-10T19:03:36.297Z,-28.2
2023-01-10T19:05:37.387Z,-28.2
2023-01-10T19:07:38.400Z,-28.6
2023-01-10T19:13:42.131Z,-28.3
2023-01-10T19:15:43.477Z,-28.2
2023-01-10T19:17:44.801Z,-28.3
2023-01-10T19:19:46.594Z,-28.6
2023-01-10T19:21:48.462Z,-28.3
2023-01-10T19:23:50.435Z,-28.3
2023-01-10T19:25:52.036Z,-28.2
2023-01-10T19:27:53.740Z,-28.3
2023-01-10T19:29:55.659Z,-28.4
2023-01-10T19:33:58.549Z,-28.4
2023-01-10T19:35:59.869Z,-28.5
2023-01-10T19:38:01.691Z,-28.3
2023-01-10T19:40:03.661Z,-28.4
2023-01-10T19:44:06.360Z,-28.4
2023-01-10T19:46:07.907Z,-28.4
2023-01-10T19:48:09.696Z,-28.4
2023-01-10T19:50:11.003Z,-28
2023-01-10T19:56:18.291Z,-28.4
2023-01-10T19:58:17.557Z,-28.2
2023-01-10T20:00:18.671Z,-28.4
2023-01-10T20:02:20.316Z,-28.2
2023-01-10T20:04:22.094Z,-28.3
2023-01-10T20:06:23.987Z,-28.3
2023-01-10T20:08:25.073Z,-28.4
2023-01-10T20:10:26.923Z,-28.2
2023-01-10T20:12:28.315Z,-28.4
2023-01-10T20:16:31.328Z,-28.3
2023-01-10T20:18:32.333Z,-28.4
2023-01-10T20:20:33.479Z,-28.3
2023-01-10T20:22:34.526Z,-28.4
2023-01-10T20:26:37.896Z,-28.4
2023-01-10T20:28:39.502Z,-28.6
2023-01-10T20:30:40.826Z,-28.2
2023-01-10T20:32:42.215Z,-28.2
2023-01-10T20:38:47.539Z,-28.3
2023-01-10T20:40:48.713Z,-28.2
2023-01-10T20:42:50.114Z,-28.3
2023-01-10T20:44:51.968Z,-28.4
2023-01-10T20:46:53.178Z,-28.2
2023-01-10T20:48:54.643Z,-28.1
2023-01-10T20:52:57.066Z,-28.4
2023-01-10T20:54:58.971Z,-28.4
2023-01-10T20:57:00.469Z,-28.2
2023-01-10T20:59:02.309Z,-28.4
2023-01-10T21:05:07.121Z,-28.3
2023-01-10T21:07:08.302Z,-28.5
2023-01-10T21:09:09.436Z,-28.3
2023-01-10T21:11:11.183Z,-28.3
2023-01-10T21:13:12.877Z,-28.4
2023-01-10T21:15:14.012Z,-28.4
2023-01-10T21:19:19.250Z,-28.3
2023-01-10T21:21:18.633Z,-28.4
2023-01-10T21:23:20.260Z,-28.4
2023-01-10T21:25:21.604Z,-28.4
2023-01-10T21:27:31.428Z,-28.2
2023-01-10T21:29:25.282Z,-28.4
2023-01-10T21:31:26.582Z,-28.3
2023-01-10T21:35:29.326Z,-28
2023-01-10T21:37:31.120Z,-28.3
2023-01-10T21:39:32.936Z,-28.4
2023-01-10T21:41:34.895Z,-28.1
2023-01-10T21:47:39.226Z,-28.3
2023-01-10T21:49:40.404Z,-28.2
2023-01-10T21:51:42.018Z,-28.5
2023-01-10T21:53:43.098Z,-28.4
2023-01-10T21:55:44.444Z,-28.3
2023-01-10T21:57:46.193Z,-28.1
2023-01-10T21:58:30.049Z,-28.4
2023-01-10T22:02:33.389Z,-28
2023-01-10T22:04:34.401Z,-28.4
2023-01-10T22:06:35.564Z,-28.4
2023-01-10T22:08:36.580Z,-28.4
2023-01-10T22:14:41.631Z,-28.2
2023-01-10T22:18:45.531Z,-28.4
2023-01-10T22:20:46.009Z,-28.3
2023-01-10T22:22:47.425Z,-28.2
2023-01-10T22:24:48.862Z,-28.2
2023-01-10T22:28:51.958Z,-28.3
2023-01-10T22:30:53.813Z,-28.4
2023-01-10T22:32:54.883Z,-28.2
2023-01-10T22:34:55.953Z,-28.5
2023-01-10T22:36:57.838Z,-28.4
2023-01-10T22:38:59.277Z,-28.3
2023-01-10T22:41:00.723Z,-28.3
2023-01-10T22:43:01.803Z,-28.3
2023-01-10T22:45:02.818Z,-28.7
2023-01-10T22:47:04.333Z,-28.3
2023-01-10T22:49:06.037Z,-28.5
2023-01-10T22:51:07.880Z,-28
2023-01-10T22:53:09.452Z,-28.2
2023-01-10T22:55:11.439Z,-28.2
2023-01-10T22:57:13.217Z,-28.4
2023-01-10T23:01:16.629Z,-28.4
2023-01-10T23:03:18.459Z,-28.4
2023-01-10T23:05:19.601Z,-28.4
2023-01-10T23:07:21.335Z,-28.2
2023-01-10T23:09:23.246Z,-28.2
2023-01-10T23:11:24.474Z,-28.2
2023-01-10T23:13:25.845Z,-28.2
2023-01-10T23:15:27.031Z,-28.2
2023-01-10T23:17:28.231Z,-28.5
2023-01-10T23:19:29.761Z,-28.3
2023-01-10T23:21:31.190Z,-28.5
2023-01-10T23:23:33.033Z,-28.4
2023-01-10T23:25:34.108Z,-28.3
2023-01-10T23:27:35.322Z,-28.5
2023-01-10T23:29:36.646Z,-28
2023-01-10T23:31:37.769Z,-28.3
2023-01-10T23:33:38.922Z,-28.3
2023-01-10T23:35:40.760Z,-28.2
2023-01-10T23:37:42.075Z,-28.2
2023-01-10T23:39:43.871Z,-28.5
2023-01-10T23:43:47.272Z,-28.4
2023-01-10T23:45:48.414Z,-28.4
2023-01-10T23:47:49.707Z,-28.4
2023-01-10T23:49:51.167Z,-28.6
2023-01-10T23:55:55.084Z,-28.2
2023-01-10T23:57:56.720Z,-28.4
2023-01-10T23:59:57.867Z,-28.2
